createdAt,value
2022-09-22T00:02:04.031Z,1.40
2022-09-22T00:05:08.089Z,1.73
2022-09-22T00:08:10.591Z,1.55
2022-09-22T00:11:17.057Z,1.55
2022-09-22T00:14:21.108Z,1.52
2022-09-22T00:17:23.723Z,1.35
2022-09-22T00:20:26.151Z,1.25
2022-09-22T00:23:29.818Z,1.63
2022-09-22T00:26:34.776Z,1.30
2022-09-22T00:29:37.290Z,1.30
2022-09-22T00:32:40.284Z,1.45
2022-09-22T00:35:42.736Z,1.58
2022-09-22T00:38:45.339Z,1.15
2022-09-22T00:41:50.930Z,1.10
2022-09-22T00:44:53.695Z,1.30
2022-09-22T00:47:56.323Z,1.17
2022-09-22T00:51:01.166Z,1.40
2022-09-22T00:54:05.656Z,0.82
2022-09-22T00:57:12.150Z,1.30
2022-09-22T01:00:15.138Z,1.20
2022-09-22T01:03:19.008Z,1.30
2022-09-22T01:06:23.325Z,1.27
2022-09-22T01:09:26.235Z,1.60
2022-09-22T01:12:31.890Z,1.40
2022-09-22T01:15:39.132Z,1.10
2022-09-22T01:18:50.257Z,1.38
2022-09-22T01:21:59.057Z,1.30
2022-09-22T01:25:10.126Z,1.17
2022-09-22T01:28:23.498Z,0.93
2022-09-22T01:31:32.492Z,1.10
2022-09-22T01:34:37.068Z,0.90
2022-09-22T01:37:44.912Z,0.80
2022-09-22T01:40:49.525Z,1.10
2022-09-22T01:43:54.388Z,0.88
2022-09-22T01:47:01.459Z,0.98
2022-09-22T01:50:06.534Z,0.77
2022-09-22T01:53:11.185Z,0.93
2022-09-22T01:56:15.041Z,0.85
2022-09-22T01:59:18.290Z,0.70
2022-09-22T02:02:24.206Z,0.80
2022-09-22T02:05:29.169Z,0.82
2022-09-22T02:08:35.947Z,0.93
2022-09-22T02:11:38.572Z,1.00
2022-09-22T02:14:41.882Z,0.82
2022-09-22T02:17:45.731Z,1.33
2022-09-22T02:20:48.532Z,1.02
2022-09-22T02:23:51.202Z,1.08
2022-09-22T02:26:56.647Z,1.65
2022-09-22T02:30:01.783Z,0.93
2022-09-22T02:33:06.267Z,1.38
2022-09-22T02:36:13.611Z,1.23
2022-09-22T02:39:19.243Z,1.10
2022-09-22T02:42:26.585Z,1.08
2022-09-22T02:45:32.137Z,1.20
2022-09-22T02:48:38.325Z,1.20
2022-09-22T02:51:46.519Z,1.15
2022-09-22T02:54:49.083Z,1.10
2022-09-22T02:57:51.583Z,0.95
2022-09-22T03:00:54.079Z,1.17
2022-09-22T03:03:57.934Z,1.05
2022-09-22T03:07:01.139Z,1.23
2022-09-22T03:10:03.828Z,1.20
2022-09-22T03:13:16.500Z,1.20
2022-09-22T03:16:19.990Z,1.27
2022-09-22T03:19:24.001Z,0.90
2022-09-22T03:22:26.523Z,1.25
2022-09-22T03:25:29.240Z,1.17
2022-09-22T03:28:32.010Z,1.30
2022-09-22T03:31:34.590Z,1.40
2022-09-22T03:34:38.390Z,1.23
2022-09-22T03:37:40.829Z,1.05
2022-09-22T03:40:49.999Z,1.35
2022-09-22T03:43:53.820Z,1.17
2022-09-22T03:46:56.525Z,1.48
2022-09-22T03:50:00.485Z,1.23
2022-09-22T03:53:02.976Z,1.10
2022-09-22T03:56:06.292Z,1.50
2022-09-22T03:59:10.250Z,1.27
2022-09-22T04:02:12.739Z,1.67
2022-09-22T04:05:16.698Z,1.73
2022-09-22T04:08:19.562Z,1.70
2022-09-22T04:11:23.359Z,1.80
2022-09-22T04:14:25.849Z,1.50
2022-09-22T04:17:28.334Z,1.42
2022-09-22T04:20:32.405Z,1.60
2022-09-22T04:23:35.442Z,1.20
2022-09-22T04:26:38.332Z,1.60
2022-09-22T04:29:40.833Z,1.65
2022-09-22T04:32:43.256Z,1.50
2022-09-22T04:35:49.594Z,1.38
2022-09-22T04:38:52.142Z,1.38
2022-09-22T04:41:54.619Z,1.30
2022-09-22T04:45:01.910Z,1.75
2022-09-22T04:48:05.370Z,1.30
2022-09-22T04:51:12.116Z,1.20
2022-09-22T04:54:14.985Z,1.00
2022-09-22T04:57:20.701Z,1.10
2022-09-22T05:00:24.210Z,0.98
2022-09-22T05:03:26.946Z,1.10
2022-09-22T05:06:30.904Z,1.13
2022-09-22T05:09:33.328Z,1.02
2022-09-22T05:12:37.546Z,1.17
2022-09-22T05:15:40.309Z,1.15
2022-09-22T05:18:42.785Z,0.93
2022-09-22T05:21:46.580Z,1.10
2022-09-22T05:24:49.162Z,1.00
2022-09-22T05:27:52.833Z,1.02
2022-09-22T05:30:55.368Z,0.93
2022-09-22T05:33:57.858Z,1.10
2022-09-22T05:37:01.714Z,0.95
2022-09-22T05:40:04.489Z,1.25
2022-09-22T05:43:07.241Z,0.85
2022-09-22T05:46:09.766Z,0.95
2022-09-22T05:49:12.368Z,0.90
2022-09-22T05:52:16.169Z,1.15
2022-09-22T05:55:18.777Z,1.25
2022-09-22T05:58:21.339Z,1.20
2022-09-22T06:01:23.870Z,1.25
2022-09-22T06:04:26.349Z,1.05
2022-09-22T06:07:30.207Z,1.80
2022-09-22T06:10:33.784Z,2.50
2022-09-22T06:13:36.575Z,1.27
2022-09-22T06:16:39.089Z,1.20
2022-09-22T06:19:43.019Z,0.93
2022-09-22T06:22:46.901Z,1.02
2022-09-22T06:25:49.380Z,1.70
2022-09-22T06:28:52.268Z,1.25
2022-09-22T06:31:55.082Z,1.27
2022-09-22T06:35:02.527Z,0.73
2022-09-22T06:38:07.489Z,1.10
2022-09-22T06:41:10.750Z,1.02
2022-09-22T06:44:14.216Z,1.17
2022-09-22T06:47:16.729Z,0.93
2022-09-22T06:50:19.247Z,1.40
2022-09-22T06:53:26.716Z,1.15
2022-09-22T06:56:30.465Z,1.20
2022-09-22T06:59:35.772Z,1.42
2022-09-22T07:02:38.904Z,1.35
2022-09-22T07:05:43.066Z,1.42
2022-09-22T07:08:48.144Z,1.13
2022-09-22T07:11:51.079Z,1.38
2022-09-22T07:14:54.790Z,1.00
2022-09-22T07:17:57.335Z,1.17
2022-09-22T07:21:03.390Z,1.88
2022-09-22T07:24:08.578Z,1.25
2022-09-22T07:27:21.394Z,1.33
2022-09-22T07:30:26.175Z,1.10
2022-09-22T07:33:30.090Z,1.20
2022-09-22T07:36:36.879Z,1.08
2022-09-22T07:39:44.038Z,1.20
2022-09-22T07:42:49.086Z,1.10
2022-09-22T07:45:57.703Z,0.95
2022-09-22T07:49:00.394Z,0.98
2022-09-22T07:52:03.061Z,1.10
2022-09-22T07:55:07.582Z,1.08
2022-09-22T07:58:12.891Z,1.58
2022-09-22T08:01:19.852Z,0.90
2022-09-22T08:04:23.973Z,1.13
2022-09-22T08:07:29.927Z,1.00
2022-09-22T08:10:36.510Z,1.00
2022-09-22T08:13:39.995Z,1.08
2022-09-22T08:16:43.245Z,1.27
2022-09-22T08:19:45.785Z,1.15
2022-09-22T08:22:52.296Z,0.82
2022-09-22T08:25:56.499Z,0.90
2022-09-22T08:28:59.151Z,1.00
2022-09-22T08:32:01.611Z,0.98
2022-09-22T08:35:05.010Z,1.10
2022-09-22T08:38:12.742Z,0.90
2022-09-22T08:41:21.032Z,1.25
2022-09-22T08:44:26.336Z,1.10
2022-09-22T08:47:49.048Z,0.80
2022-09-22T08:51:10.390Z,1.20
2022-09-22T08:54:13.250Z,0.90
2022-09-22T08:57:23.703Z,1.30
2022-09-22T09:00:29.539Z,0.80
2022-09-22T09:03:35.748Z,1.08
2022-09-22T09:06:43.755Z,1.00
2022-09-22T09:09:52.010Z,0.93
2022-09-22T09:13:02.506Z,1.20
2022-09-22T09:16:14.364Z,1.10
2022-09-22T09:19:18.522Z,1.02
2022-09-22T09:22:25.528Z,1.20
2022-09-22T09:25:31.966Z,1.00
2022-09-22T09:28:42.053Z,0.73
2022-09-22T09:31:48.651Z,1.10
2022-09-22T09:34:55.752Z,0.88
2022-09-22T09:38:01.296Z,1.02
2022-09-22T09:41:12.954Z,0.70
2022-09-22T09:44:20.543Z,1.08
2022-09-22T09:47:37.914Z,1.00
2022-09-22T09:51:03.222Z,1.65
2022-09-22T09:54:21.308Z,1.40
2022-09-22T09:57:28.120Z,1.20
2022-09-22T10:00:32.720Z,1.17
2022-09-22T10:03:37.856Z,0.80
2022-09-22T10:06:40.403Z,1.83
2022-09-22T10:09:44.380Z,0.70
2022-09-22T10:12:49.009Z,0.80
2022-09-22T10:16:05.734Z,1.45
2022-09-22T10:19:21.762Z,0.73
2022-09-22T10:22:30.350Z,0.82
2022-09-22T10:25:33.047Z,0.88
2022-09-22T10:28:41.587Z,1.00
2022-09-22T10:32:03.879Z,0.90
2022-09-22T10:35:37.599Z,0.93
2022-09-22T10:38:42.213Z,0.80
2022-09-22T10:41:46.033Z,0.85
2022-09-22T10:44:49.149Z,0.88
2022-09-22T10:47:57.719Z,1.33
2022-09-22T10:51:04.678Z,0.80
2022-09-22T10:54:22.775Z,0.77
2022-09-22T10:57:33.039Z,0.63
2022-09-22T11:00:39.218Z,2.13
2022-09-22T11:03:51.301Z,1.35
2022-09-22T11:07:20.165Z,0.80
2022-09-22T11:10:45.213Z,0.70
2022-09-22T11:13:53.717Z,0.68
2022-09-22T11:17:02.741Z,1.17
2022-09-22T11:20:19.903Z,0.70
2022-09-22T11:23:40.399Z,0.80
2022-09-22T11:26:49.226Z,0.88
2022-09-22T11:30:10.634Z,0.60
2022-09-22T11:33:31.729Z,1.30
2022-09-22T11:36:47.932Z,0.52
2022-09-22T11:40:18.602Z,0.50
2022-09-22T11:43:41.235Z,0.85
2022-09-22T11:46:57.188Z,0.80
2022-09-22T11:50:17.329Z,0.75
2022-09-22T11:53:36.128Z,0.60
2022-09-22T11:56:56.071Z,0.60
2022-09-22T12:00:02.126Z,0.75
2022-09-22T12:03:25.519Z,0.52
2022-09-22T12:06:31.144Z,0.50
2022-09-22T12:09:38.486Z,0.52
2022-09-22T12:12:45.780Z,0.52
2022-09-22T12:15:55.708Z,0.32
2022-09-22T12:19:01.492Z,0.75
2022-09-22T12:22:09.360Z,1.42
2022-09-22T12:25:31.453Z,0.55
2022-09-22T12:32:43.006Z,0.60
2022-09-22T12:35:53.251Z,0.73
2022-09-22T12:39:06.791Z,0.55
2022-09-22T12:42:19.749Z,0.50
2022-09-22T12:45:28.509Z,0.60
2022-09-22T12:48:32.114Z,0.70
2022-09-22T12:51:36.677Z,0.70
2022-09-22T12:54:39.327Z,0.60
2022-09-22T12:57:46.861Z,0.63
2022-09-22T13:00:50.443Z,0.65
2022-09-22T13:04:05.367Z,0.45
2022-09-22T13:07:27.124Z,0.60
2022-09-22T13:10:53.684Z,0.50
2022-09-22T13:13:57.622Z,0.60
2022-09-22T13:17:00.969Z,0.43
2022-09-22T13:20:08.310Z,0.57
2022-09-22T13:23:13.917Z,0.50
2022-09-22T13:26:16.657Z,0.45
2022-09-22T13:29:21.145Z,0.45
2022-09-22T13:32:26.863Z,0.43
2022-09-22T13:35:31.240Z,0.60
2022-09-22T13:38:35.973Z,0.70
2022-09-22T13:41:44.010Z,0.50
2022-09-22T13:44:49.339Z,0.63
2022-09-22T13:47:52.786Z,0.52
2022-09-22T13:50:56.437Z,0.40
2022-09-22T13:53:58.893Z,0.50
2022-09-22T13:57:03.282Z,0.47
2022-09-22T14:00:09.764Z,0.50
2022-09-22T14:03:18.763Z,0.60
2022-09-22T14:06:22.408Z,0.77
2022-09-22T14:09:25.289Z,0.60
2022-09-22T14:12:28.632Z,0.70
2022-09-22T14:15:43.515Z,0.50
2022-09-22T14:18:47.083Z,0.68
2022-09-22T14:21:53.529Z,0.60
2022-09-22T14:24:56.604Z,0.60
2022-09-22T14:28:00.629Z,0.60
2022-09-22T14:34:33.978Z,1.13
2022-09-22T14:37:41.596Z,0.90
2022-09-22T14:40:51.331Z,0.60
2022-09-22T14:43:54.516Z,0.70
2022-09-22T14:47:07.904Z,0.80
2022-09-22T14:50:11.973Z,0.52
2022-09-22T14:53:17.614Z,0.82
2022-09-22T14:56:22.981Z,0.45
2022-09-22T14:59:43.935Z,0.63
2022-09-22T15:02:50.846Z,1.00
2022-09-22T15:05:53.630Z,0.98
2022-09-22T15:08:56.197Z,1.13
2022-09-22T15:12:00.358Z,1.05
2022-09-22T15:15:04.193Z,1.00
2022-09-22T15:18:16.083Z,0.85
2022-09-22T15:21:19.006Z,0.80
2022-09-22T15:24:26.107Z,0.57
2022-09-22T15:27:28.802Z,0.60
2022-09-22T15:30:32.119Z,0.82
2022-09-22T15:33:36.312Z,1.23
2022-09-22T15:36:40.973Z,0.80
2022-09-22T15:39:43.674Z,0.90
2022-09-22T15:43:08.725Z,1.35
2022-09-22T15:46:19.486Z,0.70
2022-09-22T15:49:26.247Z,1.48
2022-09-22T15:52:29.484Z,1.48
2022-09-22T15:55:57.243Z,1.15
2022-09-22T16:03:22.420Z,0.90
2022-09-22T16:06:26.691Z,0.68
2022-09-22T16:09:31.024Z,0.60
2022-09-22T16:12:33.668Z,0.65
2022-09-22T16:15:36.602Z,0.57
2022-09-22T16:18:41.768Z,0.90
2022-09-22T16:21:51.266Z,0.70
2022-09-22T16:24:53.868Z,0.55
2022-09-22T16:27:56.642Z,0.80
2022-09-22T16:31:02.482Z,0.90
2022-09-22T16:34:05.966Z,0.80
2022-09-22T16:37:10.721Z,0.60
2022-09-22T16:40:13.467Z,1.48
2022-09-22T16:43:28.329Z,1.40
2022-09-22T16:46:31.619Z,1.40
2022-09-22T16:49:34.532Z,1.10
2022-09-22T16:52:38.724Z,1.20
2022-09-22T16:55:48.128Z,1.08
2022-09-22T16:58:51.078Z,0.90
2022-09-22T17:01:53.768Z,1.00
2022-09-22T17:04:56.408Z,1.50
2022-09-22T17:08:05.959Z,1.00
2022-09-22T17:11:09.726Z,1.27
2022-09-22T17:14:13.515Z,1.08
2022-09-22T17:17:16.287Z,1.55
2022-09-22T17:20:18.932Z,1.48
2022-09-22T17:23:23.220Z,0.82
2022-09-22T17:26:25.828Z,0.90
2022-09-22T17:29:31.261Z,1.38
2022-09-22T17:32:33.833Z,1.92
2022-09-22T17:35:36.420Z,1.75
2022-09-22T17:38:40.431Z,1.48
2022-09-22T17:41:46.706Z,1.75
2022-09-22T17:44:49.254Z,1.77
2022-09-22T17:48:09.699Z,1.58
2022-09-22T17:51:41.137Z,2.13
2022-09-22T17:55:02.451Z,2.45
2022-09-22T17:58:05.901Z,3.53
2022-09-22T18:01:08.469Z,2.92
2022-09-22T18:04:11.299Z,2.60
2022-09-22T18:07:17.649Z,2.45
2022-09-22T18:10:21.921Z,2.00
2022-09-22T18:13:24.796Z,1.80
2022-09-22T18:16:33.082Z,1.42
2022-09-22T18:19:36.487Z,1.10
2022-09-22T18:22:39.859Z,1.48
2022-09-22T18:25:44.059Z,1.30
2022-09-22T18:28:47.888Z,0.93
2022-09-22T18:31:50.618Z,1.13
2022-09-22T18:34:53.848Z,1.40
2022-09-22T18:37:56.490Z,1.30
2022-09-22T18:41:00.402Z,1.48
2022-09-22T18:44:04.387Z,1.50
2022-09-22T18:47:08.424Z,1.83
2022-09-22T18:50:11.971Z,1.50
2022-09-22T18:53:15.059Z,1.73
2022-09-22T18:56:19.011Z,1.30
2022-09-22T18:59:23.401Z,1.42
2022-09-22T19:02:26.214Z,1.23
2022-09-22T19:05:29.071Z,1.38
2022-09-22T19:08:31.677Z,0.98
2022-09-22T19:11:35.567Z,1.20
2022-09-22T19:14:39.697Z,1.20
2022-09-22T19:17:44.533Z,1.20
2022-09-22T19:20:47.224Z,1.10
2022-09-22T19:23:49.851Z,1.17
2022-09-22T19:26:55.452Z,1.33
2022-09-22T19:29:58.123Z,1.23
2022-09-22T19:33:01.126Z,1.40
2022-09-22T19:36:03.748Z,1.42
2022-09-22T19:39:08.323Z,1.25
2022-09-22T19:42:12.604Z,1.35
2022-09-22T19:45:15.446Z,1.00
2022-09-22T19:48:18.180Z,1.58
2022-09-22T19:51:23.119Z,1.02
2022-09-22T19:54:25.734Z,1.50
2022-09-22T19:57:30.877Z,1.15
2022-09-22T20:00:33.451Z,1.35
2022-09-22T20:03:36.090Z,1.27
2022-09-22T20:06:38.647Z,1.25
2022-09-22T20:09:41.267Z,1.00
2022-09-22T20:12:45.231Z,1.38
2022-09-22T20:15:47.957Z,1.25
2022-09-22T20:18:50.494Z,1.17
2022-09-22T20:22:17.085Z,1.23
2022-09-22T20:25:22.516Z,1.33
2022-09-22T20:28:26.367Z,1.15
2022-09-22T20:31:29.067Z,1.27
2022-09-22T20:34:31.592Z,1.02
2022-09-22T20:37:34.087Z,1.10
2022-09-22T20:40:36.778Z,1.15
2022-09-22T20:43:40.811Z,0.90
2022-09-22T20:46:44.151Z,1.02
2022-09-22T20:49:51.529Z,0.98
2022-09-22T20:52:55.338Z,1.20
2022-09-22T20:55:58.754Z,1.02
2022-09-22T20:59:02.745Z,0.70
2022-09-22T21:02:05.377Z,1.10
2022-09-22T21:05:08.166Z,0.95
2022-09-22T21:08:28.621Z,1.17
2022-09-22T21:11:31.664Z,1.02
2022-09-22T21:14:35.567Z,0.93
2022-09-22T21:17:40.954Z,0.82
2022-09-22T21:20:45.664Z,0.77
2022-09-22T21:23:49.119Z,0.82
2022-09-22T21:26:51.833Z,0.90
2022-09-22T21:29:55.965Z,0.90
2022-09-22T21:32:58.471Z,1.02
2022-09-22T21:36:01.865Z,1.40
2022-09-22T21:39:04.597Z,1.27
2022-09-22T21:42:07.237Z,1.13
2022-09-22T21:45:12.785Z,0.80
2022-09-22T21:48:15.465Z,1.10
2022-09-22T21:51:19.253Z,0.90
2022-09-22T21:54:21.853Z,1.00
2022-09-22T21:57:24.384Z,1.20
2022-09-22T22:00:50.658Z,1.35
2022-09-22T22:03:51.813Z,1.17
2022-09-22T22:06:54.825Z,1.35
2022-09-22T22:09:57.311Z,0.90
2022-09-22T22:12:59.747Z,1.20
2022-09-22T22:16:04.245Z,1.10
2022-09-22T22:19:07.574Z,1.00
2022-09-22T22:22:11.015Z,1.30
2022-09-22T22:25:17.176Z,1.02
2022-09-22T22:28:20.073Z,0.90
2022-09-22T22:31:24.007Z,1.13
2022-09-22T22:34:26.780Z,1.20
2022-09-22T22:37:30.179Z,0.80
2022-09-22T22:40:32.960Z,1.42
2022-09-22T22:43:35.646Z,0.95
2022-09-22T22:46:39.593Z,1.38
2022-09-22T22:49:42.921Z,1.23
2022-09-22T22:52:46.392Z,1.30
2022-09-22T22:55:55.905Z,1.15
2022-09-22T22:58:58.500Z,0.93
2022-09-22T23:02:03.042Z,0.90
2022-09-22T23:05:06.257Z,1.05
2022-09-22T23:08:09.602Z,0.93
2022-09-22T23:11:13.623Z,0.93
2022-09-22T23:14:16.929Z,0.93
2022-09-22T23:17:20.841Z,0.80
2022-09-22T23:20:24.094Z,0.93
2022-09-22T23:23:26.752Z,0.88
2022-09-22T23:26:30.062Z,1.20
2022-09-22T23:29:32.678Z,0.80
2022-09-22T23:32:36.541Z,1.05
2022-09-22T23:35:39.893Z,0.80
2022-09-22T23:38:42.827Z,0.93
2022-09-22T23:41:47.024Z,1.13
2022-09-22T23:44:49.535Z,1.33
2022-09-22T23:47:53.406Z,1.00
2022-09-22T23:50:56.231Z,0.88
2022-09-22T23:53:59.067Z,1.08
2022-09-22T23:57:02.319Z,1.33
